PWSweather.com
Personal Weather Stations
Station Observations
BLACKWELL
Blackwell, AlfretonGB DE55

BlackwellAlfretonGB DE55

Lat: 53.12076, Lon: -1.354978

Elevation: 410

Station Type: Vantage Pro

High Low Average
Temperature 51.1°F10.6°C 41.4°F5.2°C 46.7°F8.2°C
Dew Point 48.6°F9.2°C 38.7°F3.7°C 43.3°F6.3°C
Winds 7.0 mph 11.3 kmh 1.0 mph 1.6 kmh 4.0 mph SW6.4 kmh SW
Wind Gusts 16.0 mph25.7 kmh 6.0 mph9.7 kmh 12.0 mph19.3 kmh
Humidity 95% 75% 88%
Pressure 29.62 in1003.0 mb 29.13 in986.5 mb -
Precipitation 0.21 in5.3 mm - -
Hour Temp Dew Point Humidity Winds Wind Gusts Pressure Precip Precip Rate Daily Precip Total
12:28 AM 42.1°F5.6°C 39.6°F4.2°C 91% 1.0 mph SSW1.6 kmh SSW 8.0 mph12.9 kmh 29.62 in1003.0 mb 0.00 in0.0 mm 0.00 in0.0 mm 0.00 in0.0 mm
01:28 AM 43.2°F6.2°C 41.4°F5.2°C 93% 2.0 mph S3.2 kmh S 8.0 mph12.9 kmh 29.59 in1002.0 mb 0.00 in0.0 mm 0.00 in0.0 mm 0.00 in0.0 mm
02:28 AM 43.5°F6.4°C 41.9°F5.5°C 94% 2.0 mph S3.2 kmh S 8.0 mph12.9 kmh 29.55 in1000.7 mb 0.02 in0.5 mm 0.00 in0.0 mm 0.02 in0.5 mm
03:28 AM 43.9°F6.6°C 42.6°F5.9°C 95% 2.0 mph SSW3.2 kmh SSW 11.0 mph17.7 kmh 29.52 in999.7 mb 0.00 in0.0 mm 0.00 in0.0 mm 0.02 in0.5 mm
04:28 AM 44.8°F7.1°C 43.5°F6.4°C 95% 3.0 mph S4.8 kmh S 12.0 mph19.3 kmh 29.48 in998.3 mb 0.00 in0.0 mm 0.00 in0.0 mm 0.02 in0.5 mm
05:28 AM 46.0°F7.8°C 44.1°F6.7°C 93% 4.0 mph S6.4 kmh S 10.0 mph16.1 kmh 29.44 in997.0 mb 0.01 in0.3 mm 0.00 in0.0 mm 0.03 in0.8 mm
06:28 AM 46.9°F8.3°C 44.4°F6.9°C 91% 3.0 mph SSW4.8 kmh SSW 10.0 mph16.1 kmh 29.40 in995.6 mb 0.00 in0.0 mm 0.00 in0.0 mm 0.03 in0.8 mm
07:28 AM 47.5°F8.6°C 45.0°F7.2°C 91% 3.0 mph SSW4.8 kmh SSW 12.0 mph19.3 kmh 29.36 in994.2 mb 0.00 in0.0 mm 0.00 in0.0 mm 0.03 in0.8 mm
08:28 AM 48.4°F9.1°C 45.3°F7.4°C 89% 4.0 mph SSW6.4 kmh SSW 14.0 mph22.5 kmh 29.32 in992.9 mb 0.00 in0.0 mm 0.00 in0.0 mm 0.03 in0.8 mm
09:28 AM 48.7°F9.3°C 46.2°F7.9°C 91% 4.0 mph S6.4 kmh S 11.0 mph17.7 kmh 29.27 in991.2 mb 0.00 in0.0 mm 0.00 in0.0 mm 0.03 in0.8 mm
10:28 AM 49.6°F9.8°C 47.3°F8.5°C 92% 4.0 mph SSW6.4 kmh SSW 13.0 mph20.9 kmh 29.24 in990.2 mb 0.01 in0.3 mm 0.00 in0.0 mm 0.04 in1.0 mm
11:28 AM 50.4°F10.2°C 47.8°F8.8°C 91% 5.0 mph SW8.0 kmh SW 13.0 mph20.9 kmh 29.18 in988.1 mb 0.02 in0.5 mm 0.00 in0.0 mm 0.06 in1.5 mm
12:28 PM 50.7°F10.4°C 48.4°F9.1°C 92% 5.0 mph WSW8.0 kmh WSW 16.0 mph25.7 kmh 29.16 in987.5 mb 0.02 in0.5 mm 0.00 in0.0 mm 0.08 in2.0 mm
01:28 PM 51.1°F10.6°C 48.6°F9.2°C 91% 7.0 mph WSW11.3 kmh WSW 16.0 mph25.7 kmh 29.15 in987.1 mb 0.02 in0.5 mm 0.00 in0.0 mm 0.10 in2.5 mm
02:28 PM 51.1°F10.6°C 47.3°F8.5°C 87% 6.0 mph WSW9.7 kmh WSW 16.0 mph25.7 kmh 29.13 in986.5 mb 0.08 in2.0 mm 0.00 in0.0 mm 0.18 in4.6 mm
03:28 PM 50.4°F10.2°C 44.4°F6.9°C 80% 6.0 mph WSW9.7 kmh WSW 13.0 mph20.9 kmh 29.14 in986.8 mb 0.01 in0.3 mm 0.00 in0.0 mm 0.19 in4.8 mm
04:28 PM 49.8°F9.9°C 42.3°F5.7°C 75% 6.0 mph WSW9.7 kmh WSW 13.0 mph20.9 kmh 29.13 in986.5 mb 0.00 in0.0 mm 0.00 in0.0 mm 0.19 in4.8 mm
05:28 PM 47.8°F8.8°C 41.4°F5.2°C 78% 6.0 mph WSW9.7 kmh WSW 13.0 mph20.9 kmh 29.13 in986.5 mb 0.00 in0.0 mm 0.00 in0.0 mm 0.19 in4.8 mm
06:28 PM 46.2°F7.9°C 40.6°F4.8°C 81% 6.0 mph WSW9.7 kmh WSW 12.0 mph19.3 kmh 29.13 in986.5 mb 0.00 in0.0 mm 0.00 in0.0 mm 0.19 in4.8 mm
07:28 PM 45.1°F7.3°C 39.6°F4.2°C 81% 5.0 mph WSW8.0 kmh WSW 12.0 mph19.3 kmh 29.13 in986.5 mb 0.00 in0.0 mm 0.00 in0.0 mm 0.19 in4.8 mm
08:28 PM 45.0°F7.2°C 39.9°F4.4°C 82% 6.0 mph WSW9.7 kmh WSW 11.0 mph17.7 kmh 29.13 in986.5 mb 0.00 in0.0 mm 0.00 in0.0 mm 0.19 in4.8 mm
09:28 PM 44.2°F6.8°C 39.2°F4.0°C 82% 7.0 mph WSW11.3 kmh WSW 13.0 mph20.9 kmh 29.14 in986.8 mb 0.00 in0.0 mm 0.00 in0.0 mm 0.19 in4.8 mm
10:28 PM 43.7°F6.5°C 38.8°F3.8°C 83% 7.0 mph WSW11.3 kmh WSW 16.0 mph25.7 kmh 29.13 in986.5 mb 0.00 in0.0 mm 0.00 in0.0 mm 0.19 in4.8 mm
11:28 PM 41.4°F5.2°C 38.7°F3.7°C 90% 2.0 mph WSW3.2 kmh WSW 6.0 mph9.7 kmh 29.15 in987.1 mb 0.02 in0.5 mm 0.00 in0.0 mm 0.21 in5.3 mm